DATI METEO

IERI
Time Temp. P.to rug.. Umid. Press.
00:07 17.6 13.5 77 1002.1
00:16 17.6 13.5 77 1002.2
00:27 17.6 13.5 77 1002.3
00:37 17.4 13.1 76 1002.6
00:47 17.4 12.9 75 1002.7
00:57 17.3 12.6 74 1002.7
01:07 17.3 12.6 74 1002.5
01:17 17.2 12.7 75 1002.3
01:27 17.1 12.6 75 1002.3
01:38 17 12.3 74 1002.2
01:47 17 12.3 74 1002.5
01:57 16.9 12.4 75 1002.5
02:08 16.9 12.4 75 1002.5
02:18 16.8 12.3 75 1002.5
02:28 16.7 12.3 75 1002.2
02:37 16.7 12.3 75 1002.2
02:48 16.7 12.3 75 1002.1
02:58 16.7 12.5 76 1002.1
03:08 16.7 12.5 76 1002
03:18 16.6 12.4 76 1001.9
03:28 16.6 12.4 76 1002.1
03:38 16.6 12.4 76 1001.9
03:48 16.6 12.6 77 1002
03:59 16.6 12.6 77 1002
04:08 16.6 12.6 77 1001.8
04:18 16.5 12.3 76 1002
04:28 16.5 12.3 76 1001.9
04:39 16.4 11.8 74 1001.8
04:49 16.4 11.8 74 1001.9
04:58 16.3 11.9 75 1002.1
05:09 16.3 11.9 75 1002.1
05:19 16.3 11.9 75 1002
05:29 16.2 12 76 1002.1
05:39 16.2 12 76 1002.2
05:49 16.2 12 76 1002.5
05:59 16.1 12.1 77 1002.5
06:09 16 12 77 1002.6
06:19 16 12 77 1002.5
06:39 15.9 11.9 77 1002.6
07:00 15.8 11.8 77 1003
07:09 15.8 12 78 1003.3
07:19 15.8 12 78 1003
07:30 15.7 11.9 78 1003.2
07:40 15.7 11.7 77 1003.4
07:50 15.7 11.7 77 1003.3
07:59 15.7 11.7 77 1003.4
08:10 15.7 11.7 77 1003.5
08:30 15.6 11.8 78 1003.7
08:40 15.7 11.9 78 1003.7
09:00 14.8 10 73 1004.8
09:10 14.3 9.5 73 1004.9
09:21 14 9.4 74 1005.1
09:30 13.8 9.3 74 1005.1
09:40 13.5 9.2 75 1005.3
09:51 13.5 9.2 75 1005.3
10:01 13.5 9 74 1005.5
10:11 13.6 9.3 75 1005.6
10:20 13.6 9.1 74 1005.6
10:31 13.6 9.1 74 1005.8
10:41 13.8 9.3 74 1005.8
10:51 13.9 9.3 74 1005.9
11:01 14 9.2 73 1006
11:11 14.2 9.4 73 1006.2
11:21 14.3 9.3 72 1006.2
11:31 14.4 9.2 71 1006.2
11:42 14.4 9 70 1006.2
11:51 14.4 8.8 69 1006.6
12:01 14.5 9.1 70 1006.6
12:11 14.7 9.3 70 1006.5
12:22 14.6 8.8 68 1006.7
12:31 14.6 9 69 1006.8
12:41 14.7 9.3 70 1006.6
12:52 14.8 9 68 1006.6
13:02 14.8 9 68 1006.6
13:12 14.9 9.5 70 1006.6
13:22 15 10.2 73 1006.5
13:32 15.1 10.3 73 1006.5
13:42 15.3 10.5 73 1006.4
13:52 15.4 10.6 73 1006.5
14:03 15.6 10.8 73 1006.4
14:12 15.7 10.7 72 1006.4
14:22 15.7 10.5 71 1006.5
14:33 15.7 10.5 71 1006.4
14:43 15.7 10.5 71 1006.2
14:53 15.9 10.7 71 1006.2
15:02 16.1 10.8 71 1006.2
15:13 16.2 10.7 70 1006.2
15:23 16.2 10.5 69 1006.2
15:33 16.2 10.5 69 1006.4
15:43 16.2 10.5 69 1006.4
15:53 16 10.1 68 1006.4
16:03 15.9 10 68 1006.4
16:13 15.9 10.2 69 1006.2
16:23 15.9 9.8 67 1006.2
16:33 15.9 9.8 67 1006.2
16:43 15.9 10 68 1006.4
16:53 15.9 9.8 67 1006.4
17:04 15.9 9.6 66 1006.2
17:13 15.9 9.6 66 1006.2
17:23 16 9.7 66 1006.2
17:34 16.1 10 67 1006.1
17:44 16.2 9.8 66 1006
17:54 16.1 9.8 66 1006.4
18:04 16 9.4 65 1006.1
18:14 16 9.7 66 1006.4
18:24 16 9.7 66 1006.5
18:34 15.9 9.6 66 1006.4
18:44 15.8 9.5 66 1006.1
18:54 15.8 9.5 66 1006.2
19:04 15.8 9.7 67 1006.5
19:14 15.8 9.7 67 1006.4
19:25 15.8 9.7 67 1006.6
19:34 15.7 9.6 67 1006.6
19:44 15.6 9.5 67 1006.7
19:55 15.6 9.5 67 1006.7
20:05 15.6 9.5 67 1006.8
20:14 15.6 9.7 68 1006.6
20:25 15.6 9.7 68 1006.7
20:35 15.6 9.7 68 1006.7
20:45 15.5 9.6 68 1006.8
20:55 15.5 9.6 68 1007
21:05 15.5 9.6 68 1007.2
21:15 15.5 9.6 68 1007.5
21:25 15.5 9.8 69 1007.7
21:35 15.5 9.8 69 1007.8
21:45 15.5 10.1 70 1007.8
21:55 15.4 10.2 71 1007.9
22:05 15.4 10.2 71 1008.1
22:16 15.3 10.1 71 1008
22:26 15.3 10.3 72 1007.8
22:35 15.2 10.2 72 1008
22:45 15.2 10.2 72 1008.1
22:56 15.2 10.2 72 1008
23:06 15.1 9.9 71 1008
23:15 15.1 10.1 72 1008.1
23:26 15.1 10.1 72 1008.1
23:36 15.1 10.1 72 1008.3
23:46 15 10 72 1008.3
23:56 14.9 10.3 74 1008.5

STATISTICHE GIORNALIERE

2022-05-24
TEMPERATURA
MEDIA
15.7
MASSIMA
17.6
00:07
MINIMA
13.5
09:40
PRESSIONE
MEDIA
1005.1
MASSIMA
1008.5
23:56
MINIMA
1001.8
04:08
PUNTO DI RUGIADA
MEDIA
10.7
MASSIMA
13.5
00:07
MINIMA
8.8
11:51
UMIDITÀ
MEDIA
72
MASSIMA
78
07:09
MINIMA
65
18:04
TEMPERATURA (°C)
MINIMA
13.5
MASSIMA
17.6
MEDIA
15.7
PRESSIONE (hpa)
MINIMA
1001.8
MASSIMA
1008.5
MEDIA
1005.1
DEVICE